createdAt,value
2018-03-04T00:00:41.735Z,-3.60
2018-03-04T00:03:09.971Z,-3.50
2018-03-04T00:05:45.837Z,-3.50
2018-03-04T00:08:13.982Z,-3.50
2018-03-04T00:10:42.214Z,-3.50
2018-03-04T00:13:10.378Z,-3.50
2018-03-04T00:15:42.058Z,-3.50
2018-03-04T00:18:10.295Z,-3.50
2018-03-04T00:20:38.559Z,-3.50
2018-03-04T00:23:07.539Z,-3.40
2018-03-04T00:25:35.804Z,-3.50
2018-03-04T00:28:04.008Z,-3.40
2018-03-04T00:30:32.262Z,-3.40
2018-03-04T00:33:00.458Z,-3.40
2018-03-04T00:35:28.715Z,-3.30
2018-03-04T00:37:56.931Z,-3.30
2018-03-04T00:40:25.171Z,-3.30
2018-03-04T00:42:53.417Z,-3.30
2018-03-04T00:45:22.451Z,-3.20
2018-03-04T00:47:51.086Z,-3.20
2018-03-04T00:50:20.140Z,-3.20
2018-03-04T00:52:48.333Z,-3.20
2018-03-04T00:55:16.572Z,-3.20
2018-03-04T00:57:44.767Z,-3.30
2018-03-04T01:00:13.034Z,-3.40
2018-03-04T01:02:41.250Z,-3.20
2018-03-04T01:05:10.226Z,-3.10
2018-03-04T01:07:38.484Z,-3.10
2018-03-04T01:10:06.659Z,-3.00
2018-03-04T01:12:34.931Z,-3.00
2018-03-04T01:15:03.142Z,-3.00
2018-03-04T01:17:31.399Z,-3.00
2018-03-04T01:19:59.652Z,-3.00
2018-03-04T01:22:27.827Z,-3.00
2018-03-04T01:24:55.973Z,-2.90
2018-03-04T01:27:24.150Z,-2.90
2018-03-04T01:29:52.294Z,-2.90
2018-03-04T01:32:21.241Z,-2.80
2018-03-04T01:34:49.500Z,-2.80
2018-03-04T01:37:20.731Z,-2.80
2018-03-04T01:39:48.891Z,-2.80
2018-03-04T01:42:17.096Z,-2.70
2018-03-04T01:44:45.303Z,-2.70
2018-03-04T01:47:13.541Z,-2.60
2018-03-04T01:49:41.695Z,-2.70
2018-03-04T01:52:09.895Z,-2.70
2018-03-04T01:54:38.048Z,-2.80
2018-03-04T01:57:06.237Z,-2.70
2018-03-04T01:59:34.467Z,-2.60
2018-03-04T02:02:03.499Z,-2.60
2018-03-04T02:04:31.795Z,-2.60
2018-03-04T02:07:00.016Z,-2.60
2018-03-04T02:09:28.979Z,-2.60
2018-03-04T02:11:57.207Z,-2.60
2018-03-04T02:14:25.419Z,-2.60
2018-03-04T02:16:53.616Z,-2.60
2018-03-04T02:19:21.880Z,-2.60
2018-03-04T02:21:50.127Z,-2.60
2018-03-04T02:24:18.407Z,-2.60
2018-03-04T02:26:46.666Z,-2.60
2018-03-04T02:29:14.875Z,-2.50
2018-03-04T02:31:43.111Z,-2.50
2018-03-04T02:34:11.306Z,-2.50
2018-03-04T02:36:39.555Z,-2.60
2018-03-04T02:39:07.750Z,-2.50
2018-03-04T02:41:35.938Z,-2.50
2018-03-04T02:44:04.129Z,-2.60
2018-03-04T02:46:32.356Z,-2.60
2018-03-04T02:49:00.591Z,-2.60
2018-03-04T02:51:28.826Z,-2.50
2018-03-04T02:53:57.121Z,-2.50
2018-03-04T02:56:25.306Z,-2.60
2018-03-04T02:58:53.569Z,-2.60
2018-03-04T03:01:21.770Z,-2.50
2018-03-04T03:03:50.827Z,-2.40
2018-03-04T03:06:22.147Z,-2.40
2018-03-04T03:08:50.366Z,-2.40
2018-03-04T03:11:18.576Z,-2.40
2018-03-04T03:13:47.522Z,-2.20
2018-03-04T03:16:15.682Z,-2.30
2018-03-04T03:18:43.855Z,-2.30
2018-03-04T03:21:12.774Z,-2.20
2018-03-04T03:23:40.959Z,-2.20
2018-03-04T03:26:09.154Z,-2.20
2018-03-04T03:28:38.167Z,-2.10
2018-03-04T03:31:06.469Z,-2.10
2018-03-04T03:33:34.698Z,-2.20
2018-03-04T03:36:02.947Z,-2.20
2018-03-04T03:38:31.212Z,-2.20
2018-03-04T03:40:59.422Z,-2.20
2018-03-04T03:43:28.365Z,-2.20
2018-03-04T03:45:56.518Z,-2.20
2018-03-04T03:48:24.692Z,-2.10
2018-03-04T03:50:52.890Z,-2.10
2018-03-04T03:53:21.061Z,-2.00
2018-03-04T03:55:49.314Z,-2.00
2018-03-04T03:58:17.519Z,-2.00
2018-03-04T04:00:45.795Z,-2.00
2018-03-04T04:03:13.996Z,-2.00
2018-03-04T04:05:43.000Z,-2.00
2018-03-04T04:08:11.988Z,-2.00
2018-03-04T04:10:40.962Z,-2.00
2018-03-04T04:13:09.191Z,-2.00
2018-03-04T04:15:37.416Z,-2.00
2018-03-04T04:18:05.603Z,-2.00
2018-03-04T04:20:34.643Z,-2.00
2018-03-04T04:23:02.894Z,-2.00
2018-03-04T04:25:31.147Z,-2.00
2018-03-04T04:28:00.120Z,-2.00
2018-03-04T04:30:28.368Z,-2.00
2018-03-04T04:32:56.568Z,-1.90
2018-03-04T04:35:24.848Z,-1.90
2018-03-04T04:37:53.038Z,-1.90
2018-03-04T04:40:21.305Z,-1.90
2018-03-04T04:42:50.374Z,-1.70
2018-03-04T04:45:18.644Z,-1.80
2018-03-04T04:47:46.871Z,-1.70
2018-03-04T04:50:15.063Z,-1.70
2018-03-04T04:52:43.282Z,-1.70
2018-03-04T04:55:11.539Z,-1.60
2018-03-04T04:57:39.784Z,-1.60
2018-03-04T05:00:08.008Z,-1.60
2018-03-04T05:02:36.276Z,-1.60
2018-03-04T05:05:04.467Z,-1.70
2018-03-04T05:07:32.731Z,-1.70
2018-03-04T05:10:01.010Z,-1.70
2018-03-04T05:12:29.239Z,-1.70
2018-03-04T05:14:57.479Z,-1.70
2018-03-04T05:17:26.466Z,-1.60
2018-03-04T05:19:54.678Z,-1.70
2018-03-04T05:22:22.907Z,-1.60
2018-03-04T05:24:51.070Z,-1.60
2018-03-04T05:27:19.312Z,-1.70
2018-03-04T05:29:47.485Z,-1.70
2018-03-04T05:32:15.711Z,-1.70
2018-03-04T05:34:44.664Z,-1.60
2018-03-04T05:37:12.828Z,-1.60
2018-03-04T05:39:41.100Z,-1.60
2018-03-04T05:42:09.366Z,-1.50
2018-03-04T05:44:37.581Z,-1.50
2018-03-04T05:47:05.825Z,-1.50
2018-03-04T05:49:34.072Z,-1.50
2018-03-04T05:52:03.020Z,-1.50
2018-03-04T05:54:31.243Z,-1.50
2018-03-04T05:56:59.437Z,-1.40
2018-03-04T05:59:28.438Z,-1.40
2018-03-04T06:01:56.625Z,-1.40
2018-03-04T06:04:24.863Z,-1.30
2018-03-04T06:06:53.035Z,-1.30
2018-03-04T06:09:21.296Z,-1.30
2018-03-04T06:11:50.255Z,-1.30
2018-03-04T06:14:18.466Z,-1.30
2018-03-04T06:16:46.698Z,-1.30
2018-03-04T06:19:14.970Z,-1.30
2018-03-04T06:21:43.129Z,-1.20
2018-03-04T06:24:11.362Z,-1.20
2018-03-04T06:26:40.296Z,-1.10
2018-03-04T06:29:08.508Z,-1.10
2018-03-04T06:31:36.733Z,-1.10
2018-03-04T06:34:04.975Z,-1.00
2018-03-04T06:36:34.003Z,-0.90
2018-03-04T06:39:02.211Z,-1.00
2018-03-04T06:41:30.454Z,-0.90
2018-03-04T06:43:58.699Z,-0.80
2018-03-04T06:46:27.711Z,-0.70
2018-03-04T06:48:56.009Z,-0.70
2018-03-04T06:53:56.565Z,-0.70
2018-03-04T06:56:24.794Z,-0.60
2018-03-04T06:58:53.047Z,-0.50
2018-03-04T07:01:22.082Z,-0.40
2018-03-04T07:03:50.278Z,-0.40
2018-03-04T07:06:19.454Z,-0.40
2018-03-04T07:08:47.654Z,-0.30
2018-03-04T07:11:15.856Z,-0.20
2018-03-04T07:13:44.114Z,-0.20
2018-03-04T07:16:12.334Z,-0.10
2018-03-04T07:18:40.555Z,0.00
2018-03-04T07:21:08.818Z,0.10
2018-03-04T07:23:37.030Z,0.20
2018-03-04T07:26:05.269Z,0.30
2018-03-04T07:28:33.508Z,0.30
2018-03-04T07:31:01.683Z,0.40
2018-03-04T07:33:29.935Z,0.50
2018-03-04T07:35:58.142Z,0.60
2018-03-04T07:38:26.346Z,0.60
2018-03-04T07:40:54.579Z,0.70
2018-03-04T07:43:22.800Z,0.70
2018-03-04T07:45:51.034Z,0.80
2018-03-04T07:48:19.646Z,0.90
2018-03-04T07:50:47.810Z,0.90
2018-03-04T07:53:15.971Z,0.90
2018-03-04T07:55:44.120Z,1.00
2018-03-04T07:58:13.059Z,1.00
2018-03-04T08:00:41.236Z,1.00
2018-03-04T08:03:09.399Z,1.10
2018-03-04T08:05:37.563Z,1.20
2018-03-04T08:08:05.753Z,1.40
2018-03-04T08:10:33.926Z,1.40
2018-03-04T08:13:02.083Z,1.60
2018-03-04T08:15:30.262Z,1.50
2018-03-04T08:17:58.453Z,1.50
2018-03-04T08:20:26.617Z,1.50
2018-03-04T08:22:54.774Z,1.50
2018-03-04T08:25:36.805Z,1.60
2018-03-04T08:28:22.856Z,1.50
2018-03-04T08:30:51.101Z,1.40
2018-03-04T08:33:19.290Z,1.50
2018-03-04T08:35:48.304Z,1.60
2018-03-04T08:38:16.569Z,1.60
2018-03-04T08:40:44.810Z,1.70
2018-03-04T08:43:12.978Z,1.60
2018-03-04T08:45:41.207Z,1.70
2018-03-04T08:48:09.414Z,1.80
2018-03-04T08:50:37.683Z,1.90
2018-03-04T08:53:05.849Z,1.90
2018-03-04T08:55:34.098Z,1.80
2018-03-04T08:58:02.258Z,1.80
2018-03-04T09:00:31.192Z,2.00
2018-03-04T09:02:59.354Z,1.90
2018-03-04T09:05:27.494Z,1.80
2018-03-04T09:07:56.418Z,2.20
2018-03-04T09:10:24.557Z,2.20
2018-03-04T09:12:53.525Z,2.30
2018-03-04T09:15:21.727Z,2.30
2018-03-04T09:17:49.950Z,2.10
2018-03-04T09:20:18.117Z,2.10
2018-03-04T09:22:46.321Z,2.20
2018-03-04T09:25:14.492Z,2.30
2018-03-04T09:27:42.743Z,2.40
2018-03-04T09:30:10.916Z,2.60
2018-03-04T09:32:39.175Z,2.80
2018-03-04T09:35:07.414Z,3.00
2018-03-04T09:37:35.624Z,3.10
2018-03-04T09:40:03.826Z,3.30
2018-03-04T09:42:32.088Z,3.20
2018-03-04T09:45:00.242Z,3.30
2018-03-04T09:47:28.454Z,3.30
2018-03-04T09:49:56.723Z,3.40
2018-03-04T09:52:24.919Z,3.50
2018-03-04T09:54:53.176Z,3.50
2018-03-04T09:57:21.375Z,3.80
2018-03-04T09:59:49.608Z,4.00
2018-03-04T10:02:18.168Z,4.20
2018-03-04T10:04:46.418Z,4.50
2018-03-04T10:07:15.385Z,4.30
2018-03-04T10:09:43.574Z,4.20
2018-03-04T10:12:12.574Z,4.60
2018-03-04T10:14:40.780Z,4.60
2018-03-04T10:17:08.961Z,4.80
2018-03-04T10:19:37.168Z,5.30
2018-03-04T10:22:05.313Z,5.80
2018-03-04T10:24:33.471Z,5.90
2018-03-04T10:27:01.606Z,5.60
2018-03-04T10:29:29.754Z,5.60
2018-03-04T10:31:57.894Z,5.80
2018-03-04T10:34:26.058Z,6.30
2018-03-04T10:36:54.223Z,6.50
2018-03-04T10:39:22.380Z,7.30
2018-03-04T10:41:51.348Z,7.30
2018-03-04T10:44:19.531Z,7.30
2018-03-04T10:46:47.739Z,7.20
2018-03-04T10:49:15.938Z,7.50
2018-03-04T10:51:44.174Z,7.40
2018-03-04T10:54:13.179Z,7.90
2018-03-04T10:56:41.390Z,7.80
2018-03-04T10:59:09.562Z,8.60
2018-03-04T11:01:41.635Z,8.00
2018-03-04T11:04:09.836Z,8.70
2018-03-04T11:06:38.103Z,8.80
2018-03-04T11:09:06.271Z,9.30
2018-03-04T11:11:34.493Z,9.30
2018-03-04T11:14:02.641Z,9.70
2018-03-04T11:16:30.862Z,8.60
2018-03-04T11:18:59.020Z,9.20
2018-03-04T11:21:27.184Z,9.40
2018-03-04T11:23:55.330Z,9.00
2018-03-04T11:26:23.498Z,8.50
2018-03-04T11:28:51.637Z,9.20
2018-03-04T11:31:19.819Z,9.40
2018-03-04T11:33:47.966Z,10.00
2018-03-04T11:36:16.158Z,10.30
2018-03-04T11:38:44.374Z,10.00
2018-03-04T11:41:12.494Z,9.90
2018-03-04T11:43:40.662Z,10.30
2018-03-04T11:46:08.820Z,10.90
2018-03-04T11:48:37.006Z,10.90
2018-03-04T11:51:05.250Z,10.60
2018-03-04T11:53:34.253Z,11.50
2018-03-04T11:56:03.364Z,11.60
2018-03-04T11:58:31.582Z,11.60
2018-03-04T12:00:59.768Z,11.30
2018-03-04T12:03:28.006Z,11.70
2018-03-04T12:05:56.244Z,11.30
2018-03-04T12:08:25.196Z,11.30
2018-03-04T12:10:53.349Z,11.30
2018-03-04T12:13:21.522Z,12.10
2018-03-04T12:15:49.669Z,12.20
2018-03-04T12:18:17.887Z,12.50
2018-03-04T12:20:46.071Z,11.60
2018-03-04T12:23:14.276Z,11.80
2018-03-04T12:25:43.207Z,14.20
2018-03-04T12:28:11.447Z,14.20
2018-03-04T12:30:40.368Z,15.40
2018-03-04T12:33:08.539Z,15.30
2018-03-04T12:35:36.690Z,15.80
2018-03-04T12:38:04.845Z,15.50
2018-03-04T12:40:33.782Z,15.60
2018-03-04T12:43:01.930Z,15.60
2018-03-04T12:45:33.049Z,15.70
2018-03-04T12:48:01.960Z,16.50
2018-03-04T12:50:30.126Z,16.50
2018-03-04T12:52:58.277Z,15.90
2018-03-04T12:55:26.445Z,16.40
2018-03-04T12:57:55.374Z,17.60
2018-03-04T13:00:23.586Z,17.50
2018-03-04T13:02:51.734Z,17.40
2018-03-04T13:05:20.810Z,16.80
2018-03-04T13:07:49.762Z,14.90
2018-03-04T13:10:17.934Z,14.80
2018-03-04T13:12:46.092Z,15.90
2018-03-04T13:15:14.261Z,15.80
2018-03-04T13:17:42.409Z,15.50
2018-03-04T13:20:10.580Z,16.00
2018-03-04T13:22:38.733Z,15.00
2018-03-04T13:25:07.714Z,14.80
2018-03-04T13:27:36.655Z,15.90
2018-03-04T13:30:05.745Z,15.90
2018-03-04T13:32:34.004Z,15.90
2018-03-04T13:35:02.248Z,15.80
2018-03-04T13:37:33.213Z,15.20
2018-03-04T13:40:01.453Z,15.20
2018-03-04T13:42:29.706Z,14.50
2018-03-04T13:44:57.888Z,15.10
2018-03-04T13:47:26.090Z,15.20
2018-03-04T13:49:55.110Z,16.30
2018-03-04T13:52:23.358Z,16.30
2018-03-04T13:54:51.578Z,16.90
2018-03-04T13:57:20.614Z,15.60
2018-03-04T13:59:48.838Z,15.60
2018-03-04T14:02:17.062Z,16.10
2018-03-04T14:04:48.670Z,16.90
2018-03-04T14:07:16.869Z,17.20
2018-03-04T14:09:45.015Z,17.60
2018-03-04T14:12:13.186Z,17.80
2018-03-04T14:14:41.340Z,17.80
2018-03-04T14:17:10.290Z,17.50
2018-03-04T14:19:38.434Z,17.50
2018-03-04T14:22:06.598Z,18.00
2018-03-04T14:24:34.969Z,18.80
2018-03-04T14:27:03.118Z,17.70
2018-03-04T14:29:32.054Z,15.30
2018-03-04T14:32:00.198Z,15.30
2018-03-04T14:34:28.375Z,15.30
2018-03-04T14:36:56.566Z,14.90
2018-03-04T14:39:24.733Z,14.30
2018-03-04T14:41:52.881Z,13.40
2018-03-04T14:44:21.815Z,12.20
2018-03-04T14:46:49.963Z,12.20
2018-03-04T14:49:18.151Z,12.80
2018-03-04T14:51:46.293Z,13.20
2018-03-04T14:54:15.241Z,14.10
2018-03-04T14:56:47.031Z,14.10
2018-03-04T14:59:15.997Z,14.00
2018-03-04T15:01:44.130Z,14.00
2018-03-04T15:04:12.274Z,13.70
2018-03-04T15:06:41.208Z,13.80
2018-03-04T15:09:09.382Z,13.80
2018-03-04T15:11:37.545Z,14.00
2018-03-04T15:14:05.694Z,14.00
2018-03-04T15:16:34.619Z,13.40
2018-03-04T15:19:02.771Z,13.40
2018-03-04T15:21:30.943Z,12.70
2018-03-04T15:23:59.094Z,12.30
2018-03-04T15:26:28.031Z,11.80
2018-03-04T15:28:56.181Z,11.80
2018-03-04T15:31:24.337Z,11.60
2018-03-04T15:33:53.253Z,10.60
2018-03-04T15:36:21.458Z,10.60
2018-03-04T15:38:49.610Z,10.60
2018-03-04T15:41:17.777Z,10.30
2018-03-04T15:43:45.942Z,10.20
2018-03-04T15:46:14.098Z,10.00
2018-03-04T15:48:43.034Z,9.80
2018-03-04T15:51:11.194Z,9.80
2018-03-04T15:53:39.382Z,9.70
2018-03-04T15:56:08.474Z,9.50
2018-03-04T15:58:36.635Z,9.50
2018-03-04T16:01:04.793Z,9.40
2018-03-04T16:03:32.949Z,9.20
2018-03-04T16:06:01.855Z,8.80
2018-03-04T16:08:30.014Z,8.80
2018-03-04T16:10:58.917Z,8.50
2018-03-04T16:13:27.070Z,8.50
2018-03-04T16:15:55.981Z,8.40
2018-03-04T16:18:24.130Z,8.40
2018-03-04T16:20:52.261Z,8.20
2018-03-04T16:23:20.438Z,8.10
2018-03-04T16:25:48.586Z,8.00
2018-03-04T16:28:16.817Z,7.90
2018-03-04T16:30:44.957Z,7.80
2018-03-04T16:33:13.102Z,7.70
2018-03-04T16:35:41.290Z,7.60
2018-03-04T16:38:09.427Z,7.60
2018-03-04T16:40:38.346Z,7.40
2018-03-04T16:43:06.518Z,7.40
2018-03-04T16:45:34.676Z,7.40
2018-03-04T16:48:02.818Z,7.30
2018-03-04T16:50:30.974Z,7.20
2018-03-04T16:52:59.120Z,7.10
2018-03-04T16:55:27.277Z,7.10
2018-03-04T16:57:55.420Z,7.00
2018-03-04T17:00:24.345Z,6.80
2018-03-04T17:02:52.485Z,6.80
2018-03-04T17:05:22.433Z,6.70
2018-03-04T17:07:50.581Z,6.80
2018-03-04T17:10:18.782Z,6.70
2018-03-04T17:12:46.919Z,6.60
2018-03-04T17:15:15.845Z,6.60
2018-03-04T17:17:43.982Z,6.50
2018-03-04T17:20:12.163Z,6.50
2018-03-04T17:22:40.359Z,6.50
2018-03-04T17:25:08.493Z,6.40
2018-03-04T17:27:36.654Z,6.40
2018-03-04T17:30:04.792Z,6.20
2018-03-04T17:32:32.946Z,6.20
2018-03-04T17:35:01.091Z,6.20
2018-03-04T17:37:30.065Z,6.10
2018-03-04T17:39:58.173Z,6.10
2018-03-04T17:42:27.098Z,6.00
2018-03-04T17:44:55.232Z,5.90
2018-03-04T17:47:24.149Z,5.80
2018-03-04T17:49:52.303Z,5.80
2018-03-04T17:52:20.474Z,5.70
2018-03-04T17:54:49.380Z,5.60
2018-03-04T17:57:17.529Z,5.60
2018-03-04T17:59:46.438Z,5.50
2018-03-04T18:02:14.594Z,5.50
2018-03-04T18:04:43.555Z,5.40
2018-03-04T18:07:11.718Z,5.40
2018-03-04T18:09:39.865Z,5.40
2018-03-04T18:12:08.021Z,5.50
2018-03-04T18:14:36.162Z,5.40
2018-03-04T18:17:04.345Z,5.50
2018-03-04T18:19:33.262Z,5.40
2018-03-04T18:22:01.405Z,5.40
2018-03-04T18:24:29.589Z,5.40
2018-03-04T18:26:58.494Z,5.30
2018-03-04T18:29:26.657Z,5.30
2018-03-04T18:31:55.558Z,5.20
2018-03-04T18:34:24.486Z,5.20
2018-03-04T18:36:52.619Z,5.20
2018-03-04T18:39:20.785Z,5.20
2018-03-04T18:41:49.694Z,5.10
2018-03-04T18:44:18.698Z,5.10
2018-03-04T18:46:46.828Z,5.10
2018-03-04T18:49:14.990Z,5.10
2018-03-04T18:51:43.179Z,5.10
2018-03-04T18:54:12.224Z,5.00
2018-03-04T18:56:40.495Z,5.00
2018-03-04T18:59:08.686Z,4.90
2018-03-04T19:01:36.824Z,4.90
2018-03-04T19:04:05.016Z,4.80
2018-03-04T19:06:33.154Z,4.80
2018-03-04T19:09:02.082Z,4.60
2018-03-04T19:11:30.227Z,4.60
2018-03-04T19:13:58.412Z,4.60
2018-03-04T19:16:26.550Z,4.50
2018-03-04T19:18:54.725Z,4.50
2018-03-04T19:21:23.644Z,4.40
2018-03-04T19:23:51.785Z,4.40
2018-03-04T19:26:19.937Z,4.30
2018-03-04T19:28:48.082Z,4.30
2018-03-04T19:31:17.009Z,4.20
2018-03-04T19:33:45.154Z,4.20
2018-03-04T19:36:13.329Z,4.10
2018-03-04T19:38:42.275Z,4.10
2018-03-04T19:41:10.439Z,4.00
2018-03-04T19:43:38.569Z,4.10
2018-03-04T19:46:06.728Z,4.10
2018-03-04T19:48:34.863Z,4.00
2018-03-04T19:51:03.798Z,4.00
2018-03-04T19:53:31.938Z,3.90
2018-03-04T19:56:00.099Z,4.00
2018-03-04T19:58:29.382Z,4.00
2018-03-04T20:00:57.585Z,3.90
2018-03-04T20:03:26.517Z,3.70
2018-03-04T20:05:54.678Z,3.70
2018-03-04T20:08:22.864Z,3.80
2018-03-04T20:10:51.026Z,3.80
2018-03-04T20:13:19.791Z,3.70
2018-03-04T20:15:47.986Z,3.60
2018-03-04T20:18:16.173Z,3.60
2018-03-04T20:20:44.327Z,3.70
2018-03-04T20:23:12.502Z,3.70
2018-03-04T20:25:41.398Z,3.80
2018-03-04T20:28:09.574Z,3.70
2018-03-04T20:30:37.714Z,3.70
2018-03-04T20:33:06.643Z,3.80
2018-03-04T20:38:02.286Z,3.80
2018-03-04T20:40:30.422Z,3.90
2018-03-04T20:42:58.574Z,3.90
2018-03-04T20:45:27.489Z,3.90
2018-03-04T20:47:55.662Z,3.80
2018-03-04T20:50:23.804Z,3.90
2018-03-04T20:52:53.471Z,3.90
2018-03-04T20:55:21.631Z,3.80
2018-03-04T20:57:49.840Z,3.70
2018-03-04T21:00:18.058Z,3.70
2018-03-04T21:02:46.270Z,3.70
2018-03-04T21:05:14.444Z,3.70
2018-03-04T21:07:43.032Z,3.60
2018-03-04T21:10:11.354Z,3.60
2018-03-04T21:12:40.379Z,3.50
2018-03-04T21:15:09.372Z,3.50
2018-03-04T21:17:38.398Z,3.50
2018-03-04T21:22:43.362Z,3.40
2018-03-04T21:25:11.500Z,3.40
2018-03-04T21:27:39.854Z,3.40
2018-03-04T21:30:07.990Z,3.30
2018-03-04T21:32:36.217Z,3.20
2018-03-04T21:35:04.359Z,3.10
2018-03-04T21:37:32.546Z,3.30
2018-03-04T21:40:00.699Z,3.20
2018-03-04T21:42:29.623Z,3.40
2018-03-04T21:44:57.765Z,3.30
2018-03-04T21:47:26.690Z,3.40
2018-03-04T21:49:54.825Z,3.30
2018-03-04T21:52:23.795Z,3.50
2018-03-04T21:54:51.925Z,3.50
2018-03-04T21:57:20.081Z,3.50
2018-03-04T21:59:48.219Z,3.50
2018-03-04T22:02:16.551Z,3.50
2018-03-04T22:04:44.820Z,3.60
2018-03-04T22:07:13.824Z,3.60
2018-03-04T22:09:42.092Z,3.60
2018-03-04T22:12:10.229Z,3.60
2018-03-04T22:14:39.158Z,3.50
2018-03-04T22:17:07.308Z,3.50
2018-03-04T22:19:35.482Z,3.50
2018-03-04T22:22:03.644Z,3.50
2018-03-04T22:24:32.629Z,3.50
2018-03-04T22:27:00.816Z,3.50
2018-03-04T22:29:29.071Z,3.50
2018-03-04T22:31:57.311Z,3.50
2018-03-04T22:34:25.546Z,3.40
2018-03-04T22:36:53.754Z,3.40
2018-03-04T22:39:22.015Z,3.40
2018-03-04T22:41:50.202Z,3.50
2018-03-04T22:44:18.434Z,3.30
2018-03-04T22:46:47.800Z,3.40
2018-03-04T22:49:16.003Z,3.40
2018-03-04T22:51:45.007Z,3.40
2018-03-04T22:54:13.234Z,3.30
2018-03-04T22:56:41.370Z,3.40
2018-03-04T22:59:09.516Z,3.40
2018-03-04T23:01:38.446Z,3.30
2018-03-04T23:04:07.079Z,3.30
2018-03-04T23:06:36.019Z,3.10
2018-03-04T23:11:31.857Z,3.10
2018-03-04T23:14:00.059Z,3.00
2018-03-04T23:16:29.090Z,3.00
2018-03-04T23:18:58.035Z,3.00
2018-03-04T23:21:26.311Z,2.90
2018-03-04T23:23:54.483Z,3.00
2018-03-04T23:26:22.707Z,3.00
2018-03-04T23:28:51.715Z,2.90
2018-03-04T23:31:19.927Z,2.90
2018-03-04T23:33:48.162Z,2.80
2018-03-04T23:36:16.478Z,2.80
2018-03-04T23:38:44.667Z,2.60
2018-03-04T23:41:12.899Z,2.50
2018-03-04T23:43:41.037Z,2.50
2018-03-04T23:46:09.951Z,2.50
2018-03-04T23:48:38.121Z,2.40
2018-03-04T23:51:06.283Z,2.40
2018-03-04T23:53:35.209Z,2.40
2018-03-04T23:56:03.342Z,2.40
2018-03-04T23:58:32.261Z,2.40
